PRIVATE WETTERSTATION BILLIGHEIM-ALLFELD                       ZURCK
Wetterdaten: Samstag, 26.08.2017
Datum Zeit Temp. A. Temp. A. min Temp. A. max Feuchte A. Luftdruck Regen Wind Richtung Richtung Sonnenschein ET Solar Taupunkt Windchill Windben Empfang
26.08.2017 00:00 19,0 C 19,0 C 19,2 C 86 % 1015,1 hPa 0,0 l/m 0,2 km/h (0 Bft) O-NO 63 0 min 0,000 mm 0 W/m 16,6 C 19,0 C 6,4 km/h (2 Bft) 67 %
26.08.2017 00:10 18,8 C 18,8 C 19,0 C 86 % 1015,1 hPa 0,0 l/m 0,0 km/h (0 Bft) O-NO 63 0 min 0,000 mm 0 W/m 16,4 C 18,8 C 0,0 km/h (0 Bft) 100 %
26.08.2017 00:20 18,7 C 18,7 C 18,8 C 86 % 1015,1 hPa 0,0 l/m 0,0 km/h (0 Bft) O-NO 59 0 min 0,000 mm 0 W/m 16,3 C 18,7 C 0,0 km/h (0 Bft) 100 %
26.08.2017 00:30 18,5 C 18,5 C 18,7 C 86 % 1015,1 hPa 0,0 l/m 0,0 km/h (0 Bft) O-NO 59 0 min 0,000 mm 0 W/m 16,1 C 18,5 C 0,0 km/h (0 Bft) 100 %
26.08.2017 00:40 18,3 C 18,3 C 18,5 C 87 % 1014,9 hPa 0,0 l/m 0,0 km/h (0 Bft) O-NO 59 0 min 0,000 mm 0 W/m 16,1 C 18,3 C 0,0 km/h (0 Bft) 100 %
26.08.2017 00:50 18,3 C 18,3 C 18,3 C 87 % 1014,8 hPa 0,0 l/m 0,0 km/h (0 Bft) O-NO 59 0 min 0,000 mm 0 W/m 16,1 C 18,3 C 0,0 km/h (0 Bft) 100 %
26.08.2017 01:00 18,2 C 18,2 C 18,3 C 88 % 1014,7 hPa 0,0 l/m 0,4 km/h (0 Bft) NO 52 0 min 0,000 mm 0 W/m 16,2 C 18,2 C 4,8 km/h (1 Bft) 100 %
26.08.2017 01:10 18,2 C 18,2 C 18,2 C 88 % 1014,6 hPa 0,0 l/m 0,0 km/h (0 Bft) NO 52 0 min 0,000 mm 0 W/m 16,2 C 18,2 C 0,0 km/h (0 Bft) 100 %
26.08.2017 01:20 18,1 C 18,1 C 18,2 C 88 % 1014,5 hPa 0,0 l/m 0,0 km/h (0 Bft) NO 52 0 min 0,000 mm 0 W/m 16,1 C 18,1 C 0,0 km/h (0 Bft) 100 %
26.08.2017 01:30 17,9 C 17,9 C 18,1 C 88 % 1014,4 hPa 0,0 l/m 0,0 km/h (0 Bft) NO 52 0 min 0,000 mm 0 W/m 15,9 C 17,9 C 0,0 km/h (0 Bft) 100 %
26.08.2017 01:40 17,7 C 17,7 C 17,9 C 88 % 1014,5 hPa 0,0 l/m 0,0 km/h (0 Bft) NO 52 0 min 0,000 mm 0 W/m 15,7 C 17,7 C 0,0 km/h (0 Bft) 98 %
26.08.2017 01:50 17,5 C 17,5 C 17,7 C 88 % 1014,4 hPa 0,0 l/m 0,0 km/h (0 Bft) NO 52 0 min 0,000 mm 0 W/m 15,5 C 17,5 C 0,0 km/h (0 Bft) 99 %
26.08.2017 02:00 17,3 C 17,3 C 17,5 C 88 % 1014,4 hPa 0,0 l/m 0,0 km/h (0 Bft) NO 52 0 min 0,000 mm 0 W/m 15,3 C 17,3 C 0,0 km/h (0 Bft) 99 %
26.08.2017 02:10 17,2 C 17,2 C 17,3 C 88 % 1014,5 hPa 0,0 l/m 0,0 km/h (0 Bft) NO 50 0 min 0,000 mm 0 W/m 15,2 C 17,2 C 1,6 km/h (1 Bft) 98 %
26.08.2017 02:20 17,0 C 17,0 C 17,2 C 88 % 1014,3 hPa 0,0 l/m 0,0 km/h (0 Bft) NO 50 0 min 0,000 mm 0 W/m 15,0 C 17,0 C 0,0 km/h (0 Bft) 98 %
26.08.2017 02:30 16,9 C 16,9 C 17,0 C 88 % 1014,3 hPa 0,0 l/m 0,0 km/h (0 Bft) NO 50 0 min 0,000 mm 0 W/m 14,9 C 16,9 C 0,0 km/h (0 Bft) 99 %
26.08.2017 02:40 16,8 C 16,8 C 16,9 C 88 % 1014,4 hPa 0,0 l/m 0,0 km/h (0 Bft) NO 50 0 min 0,000 mm 0 W/m 14,8 C 16,8 C 0,0 km/h (0 Bft) 100 %
26.08.2017 02:50 16,7 C 16,7 C 16,8 C 88 % 1014,4 hPa 0,0 l/m 0,0 km/h (0 Bft) NO 50 0 min 0,000 mm 0 W/m 14,7 C 16,7 C 0,0 km/h (0 Bft) 100 %
26.08.2017 03:00 16,6 C 16,6 C 16,7 C 88 % 1014,4 hPa 0,0 l/m 0,0 km/h (0 Bft) NO 50 0 min 0,000 mm 0 W/m 14,6 C 16,6 C 0,0 km/h (0 Bft) 100 %
26.08.2017 03:10 16,5 C 16,5 C 16,6 C 88 % 1014,5 hPa 0,0 l/m 0,1 km/h (0 Bft) NO 51 0 min 0,000 mm 0 W/m 14,5 C 16,5 C 3,2 km/h (1 Bft) 99 %
26.08.2017 03:20 16,5 C 16,5 C 16,6 C 88 % 1014,5 hPa 0,0 l/m 0,2 km/h (0 Bft) NO 51 0 min 0,000 mm 0 W/m 14,5 C 16,5 C 3,2 km/h (1 Bft) 100 %
26.08.2017 03:30 16,4 C 16,4 C 16,5 C 88 % 1014,5 hPa 0,0 l/m 0,0 km/h (0 Bft) NO 51 0 min 0,000 mm 0 W/m 14,4 C 16,4 C 0,0 km/h (0 Bft) 100 %
26.08.2017 03:40 16,3 C 16,3 C 16,4 C 88 % 1014,5 hPa 0,0 l/m 0,0 km/h (0 Bft) NO 51 0 min 0,000 mm 0 W/m 14,3 C 16,3 C 0,0 km/h (0 Bft) 100 %
26.08.2017 03:50 16,3 C 16,3 C 16,3 C 88 % 1014,5 hPa 0,0 l/m 0,0 km/h (0 Bft) NO 51 0 min 0,000 mm 0 W/m 14,3 C 16,3 C 0,0 km/h (0 Bft) 100 %
26.08.2017 04:00 16,2 C 16,2 C 16,3 C 88 % 1014,4 hPa 0,0 l/m 0,0 km/h (0 Bft) NO 51 0 min 0,000 mm 0 W/m 14,2 C 16,2 C 0,0 km/h (0 Bft) 100 %
26.08.2017 04:10 16,2 C 16,2 C 16,2 C 88 % 1014,4 hPa 0,0 l/m 0,0 km/h (0 Bft) NO 51 0 min 0,000 mm 0 W/m 14,2 C 16,2 C 0,0 km/h (0 Bft) 100 %
26.08.2017 04:20 16,1 C 16,1 C 16,2 C 88 % 1014,3 hPa 0,0 l/m 0,0 km/h (0 Bft) NO 51 0 min 0,000 mm 0 W/m 14,1 C 16,1 C 0,0 km/h (0 Bft) 100 %
26.08.2017 04:30 16,1 C 16,1 C 16,1 C 88 % 1014,2 hPa 0,0 l/m 0,0 km/h (0 Bft) NO 51 0 min 0,000 mm 0 W/m 14,1 C 16,1 C 0,0 km/h (0 Bft) 100 %
26.08.2017 04:40 15,9 C 15,9 C 16,1 C 89 % 1014,3 hPa 0,0 l/m 0,0 km/h (0 Bft) NO 51 0 min 0,000 mm 0 W/m 14,1 C 15,9 C 1,6 km/h (1 Bft) 100 %
26.08.2017 04:50 15,9 C 15,9 C 15,9 C 89 % 1014,2 hPa 0,0 l/m 0,0 km/h (0 Bft) NO 51 0 min 0,000 mm 0 W/m 14,1 C 15,9 C 0,0 km/h (0 Bft) 100 %
26.08.2017 05:00 15,8 C 15,8 C 15,9 C 89 % 1014,3 hPa 0,0 l/m 1,1 km/h (1 Bft) NO 46 0 min 0,000 mm 0 W/m 14,0 C 15,8 C 4,8 km/h (1 Bft) 100 %
26.08.2017 05:10 15,8 C 15,8 C 15,9 C 88 % 1014,2 hPa 0,0 l/m 1,0 km/h (0 Bft) NO 46 0 min 0,000 mm 0 W/m 13,8 C 15,8 C 4,8 km/h (1 Bft) 91 %
26.08.2017 05:20 15,7 C 15,7 C 15,8 C 88 % 1014,3 hPa 0,0 l/m 0,9 km/h (0 Bft) NO 46 0 min 0,000 mm 0 W/m 13,7 C 15,7 C 3,2 km/h (1 Bft) 100 %
26.08.2017 05:30 15,7 C 15,7 C 15,7 C 88 % 1014,3 hPa 0,0 l/m 0,0 km/h (0 Bft) NO 46 0 min 0,000 mm 0 W/m 13,7 C 15,7 C 0,0 km/h (0 Bft) 100 %
26.08.2017 05:40 15,6 C 15,6 C 15,7 C 89 % 1014,3 hPa 0,0 l/m 0,0 km/h (0 Bft) NO 46 0 min 0,000 mm 0 W/m 13,8 C 15,6 C 0,0 km/h (0 Bft) 100 %
26.08.2017 05:50 15,6 C 15,6 C 15,6 C 89 % 1014,2 hPa 0,0 l/m 0,0 km/h (0 Bft) NO 46 0 min 0,000 mm 0 W/m 13,8 C 15,6 C 0,0 km/h (0 Bft) 100 %
26.08.2017 06:00 15,6 C 15,6 C 15,6 C 89 % 1014,3 hPa 0,0 l/m 0,0 km/h (0 Bft) NO 46 0 min 0,000 mm 0 W/m 13,8 C 15,6 C 0,0 km/h (0 Bft) 100 %
26.08.2017 06:10 15,5 C 15,5 C 15,6 C 89 % 1014,2 hPa 0,0 l/m 0,0 km/h (0 Bft) NO 46 0 min 0,000 mm 0 W/m 13,7 C 15,5 C 0,0 km/h (0 Bft) 100 %
26.08.2017 06:20 15,5 C 15,4 C 15,5 C 89 % 1014,3 hPa 0,0 l/m 0,1 km/h (0 Bft) NO 46 0 min 0,000 mm 0 W/m 13,7 C 15,5 C 3,2 km/h (1 Bft) 99 %
26.08.2017 06:30 15,3 C 15,3 C 15,5 C 89 % 1014,5 hPa 0,0 l/m 0,4 km/h (0 Bft) NO 46 0 min 0,000 mm 0 W/m 13,5 C 15,3 C 3,2 km/h (1 Bft) 100 %
26.08.2017 06:40 15,2 C 15,2 C 15,3 C 89 % 1014,5 hPa 0,0 l/m 0,0 km/h (0 Bft) NO 46 0 min 0,000 mm 5 W/m 13,4 C 15,2 C 0,0 km/h (0 Bft) 99 %
26.08.2017 06:50 15,1 C 15,1 C 15,2 C 89 % 1014,5 hPa 0,0 l/m 0,0 km/h (0 Bft) NO 46 0 min 0,000 mm 11 W/m 13,3 C 15,1 C 0,0 km/h (0 Bft) 100 %
26.08.2017 07:00 15,1 C 15,1 C 15,1 C 89 % 1014,5 hPa 0,0 l/m 0,0 km/h (0 Bft) NO 46 0 min 0,000 mm 16 W/m 13,3 C 15,1 C 0,0 km/h (0 Bft) 100 %
26.08.2017 07:10 15,1 C 15,1 C 15,1 C 89 % 1014,5 hPa 0,0 l/m 0,0 km/h (0 Bft) NO 46 0 min 0,000 mm 25 W/m 13,3 C 15,1 C 0,0 km/h (0 Bft) 100 %
26.08.2017 07:20 15,1 C 15,1 C 15,1 C 89 % 1014,4 hPa 0,0 l/m 0,0 km/h (0 Bft) NO 46 0 min 0,000 mm 32 W/m 13,3 C 15,1 C 0,0 km/h (0 Bft) 100 %
26.08.2017 07:30 15,1 C 15,1 C 15,1 C 89 % 1014,5 hPa 0,0 l/m 0,0 km/h (0 Bft) NO 46 0 min 0,000 mm 39 W/m 13,3 C 15,1 C 0,0 km/h (0 Bft) 100 %
26.08.2017 07:40 15,1 C 15,1 C 15,1 C 89 % 1014,7 hPa 0,0 l/m 0,0 km/h (0 Bft) NO 46 0 min 0,000 mm 47 W/m 13,3 C 15,1 C 0,0 km/h (0 Bft) 100 %
26.08.2017 07:50 15,3 C 15,1 C 15,3 C 89 % 1014,6 hPa 0,0 l/m 0,0 km/h (0 Bft) NO 46 0 min 0,000 mm 54 W/m 13,5 C 15,3 C 0,0 km/h (0 Bft) 100 %
26.08.2017 08:00 15,4 C 15,3 C 15,4 C 89 % 1014,6 hPa 0,0 l/m 0,0 km/h (0 Bft) NO 46 0 min 0,025 mm 63 W/m 13,6 C 15,4 C 0,0 km/h (0 Bft) 100 %
26.08.2017 08:10 15,6 C 15,4 C 15,6 C 89 % 1014,6 hPa 0,0 l/m 0,0 km/h (0 Bft) NO 53 0 min 0,000 mm 69 W/m 13,8 C 15,6 C 0,0 km/h (0 Bft) 100 %
26.08.2017 08:20 15,7 C 15,6 C 15,7 C 89 % 1014,7 hPa 0,0 l/m 0,0 km/h (0 Bft) NO 52 0 min 0,000 mm 72 W/m 13,9 C 15,7 C 0,0 km/h (0 Bft) 99 %
26.08.2017 08:30 16,0 C 15,7 C 16,0 C 89 % 1014,6 hPa 0,0 l/m 0,0 km/h (0 Bft) NO 52 0 min 0,000 mm 127 W/m 14,2 C 16,0 C 0,0 km/h (0 Bft) 100 %
26.08.2017 08:40 16,5 C 16,0 C 16,5 C 89 % 1014,7 hPa 0,0 l/m 0,0 km/h (0 Bft) NO 52 10 min 0,000 mm 234 W/m 14,7 C 16,5 C 0,0 km/h (0 Bft) 99 %
26.08.2017 08:50 17,4 C 16,5 C 17,4 C 89 % 1014,7 hPa 0,0 l/m 0,0 km/h (0 Bft) NO 52 10 min 0,000 mm 267 W/m 15,6 C 17,4 C 0,0 km/h (0 Bft) 100 %
26.08.2017 09:00 18,5 C 17,4 C 18,5 C 89 % 1014,7 hPa 0,0 l/m 0,0 km/h (0 Bft) NO 52 10 min 0,077 mm 283 W/m 16,7 C 18,5 C 0,0 km/h (0 Bft) 100 %
26.08.2017 09:10 19,4 C 18,5 C 19,4 C 89 % 1014,8 hPa 0,0 l/m 0,0 km/h (0 Bft) O-NO 78 10 min 0,000 mm 323 W/m 17,5 C 19,4 C 0,0 km/h (0 Bft) 100 %
26.08.2017 09:20 20,0 C 19,4 C 20,0 C 88 % 1014,8 hPa 0,0 l/m 0,0 km/h (0 Bft) SO 132 10 min 0,000 mm 360 W/m 17,9 C 20,0 C 1,6 km/h (1 Bft) 100 %
26.08.2017 09:30 20,5 C 20,0 C 20,5 C 86 % 1014,7 hPa 0,0 l/m 0,0 km/h (0 Bft) S-SO 153 10 min 0,000 mm 388 W/m 18,1 C 20,5 C 1,6 km/h (1 Bft) 98 %
26.08.2017 09:40 21,0 C 20,5 C 21,0 C 84 % 1014,7 hPa 0,0 l/m 0,0 km/h (0 Bft) S-SO 160 10 min 0,000 mm 243 W/m 18,2 C 21,0 C 1,6 km/h (1 Bft) 100 %
26.08.2017 09:50 21,6 C 21,0 C 21,6 C 83 % 1014,7 hPa 0,0 l/m 0,0 km/h (0 Bft) S 171 10 min 0,000 mm 448 W/m 18,6 C 21,6 C 1,6 km/h (1 Bft) 100 %
26.08.2017 10:00 22,2 C 21,6 C 22,2 C 82 % 1014,8 hPa 0,0 l/m 0,0 km/h (0 Bft) S-SO 159 10 min 0,000 mm 455 W/m 19,0 C 22,2 C 1,6 km/h (1 Bft) 100 %
26.08.2017 10:10 22,8 C 22,2 C 22,8 C 83 % 1014,7 hPa 0,0 l/m 3,9 km/h (1 Bft) S-SW 207 10 min 0,203 mm 490 W/m 19,8 C 22,8 C 9,7 km/h (2 Bft) 100 %
26.08.2017 10:20 23,4 C 22,8 C 23,4 C 79 % 1014,9 hPa 0,0 l/m 1,2 km/h (1 Bft) S-SW 200 10 min 0,000 mm 506 W/m 19,5 C 23,4 C 11,3 km/h (2 Bft) 100 %
26.08.2017 10:30 23,9 C 23,4 C 23,9 C 76 % 1014,9 hPa 0,0 l/m 8,1 km/h (2 Bft) W-SW 257 10 min 0,000 mm 536 W/m 19,4 C 23,4 C 19,3 km/h (3 Bft) 100 %
26.08.2017 10:40 24,6 C 23,9 C 24,6 C 74 % 1014,8 hPa 0,0 l/m 5,5 km/h (1 Bft) SW 227 10 min 0,000 mm 559 W/m 19,6 C 24,6 C 16,1 km/h (3 Bft) 100 %
26.08.2017 10:50 25,0 C 24,6 C 25,0 C 74 % 1014,9 hPa 0,0 l/m 6,1 km/h (2 Bft) W-SW 241 10 min 0,000 mm 570 W/m 20,0 C 25,0 C 16,1 km/h (3 Bft) 100 %
26.08.2017 11:00 25,4 C 25,0 C 25,4 C 73 % 1014,9 hPa 0,0 l/m 6,8 km/h (2 Bft) SW 233 10 min 0,330 mm 591 W/m 20,2 C 25,3 C 16,1 km/h (3 Bft) 100 %
26.08.2017 11:10 25,6 C 25,4 C 25,6 C 71 % 1014,8 hPa 0,0 l/m 7,2 km/h (2 Bft) SW 227 10 min 0,000 mm 612 W/m 19,9 C 25,4 C 17,7 km/h (3 Bft) 99 %
26.08.2017 11:20 26,0 C 25,6 C 26,0 C 67 % 1014,8 hPa 0,0 l/m 5,3 km/h (1 Bft) SW 223 10 min 0,000 mm 636 W/m 19,4 C 26,0 C 16,1 km/h (3 Bft) 99 %
26.08.2017 11:30 26,2 C 26,0 C 26,2 C 63 % 1014,8 hPa 0,0 l/m 7,0 km/h (2 Bft) W-NW 292 10 min 0,000 mm 647 W/m 18,6 C 26,1 C 19,3 km/h (3 Bft) 100 %
26.08.2017 11:40 26,4 C 26,2 C 26,4 C 64 % 1014,8 hPa 0,0 l/m 7,7 km/h (2 Bft) SW 216 10 min 0,000 mm 671 W/m 19,0 C 26,1 C 22,5 km/h (4 Bft) 99 %
26.08.2017 11:50 26,7 C 26,4 C 26,7 C 62 % 1014,8 hPa 0,0 l/m 11,7 km/h (2 Bft) SW 233 10 min 0,000 mm 694 W/m 18,8 C 25,8 C 24,1 km/h (4 Bft) 100 %
26.08.2017 12:00 26,9 C 26,7 C 26,9 C 59 % 1014,7 hPa 0,0 l/m 7,2 km/h (2 Bft) W-SW 254 10 min 0,457 mm 705 W/m 18,2 C 26,7 C 20,9 km/h (4 Bft) 100 %
26.08.2017 12:10 27,2 C 26,9 C 27,2 C 60 % 1014,7 hPa 0,0 l/m 5,3 km/h (1 Bft) W-NW 285 10 min 0,000 mm 710 W/m 18,7 C 27,2 C 17,7 km/h (3 Bft) 100 %
26.08.2017 12:20 27,6 C 27,2 C 27,6 C 60 % 1014,6 hPa 0,0 l/m 6,5 km/h (2 Bft) W-SW 257 10 min 0,000 mm 714 W/m 19,1 C 27,6 C 16,1 km/h (3 Bft) 100 %
26.08.2017 12:30 27,9 C 27,6 C 28,0 C 56 % 1014,5 hPa 0,0 l/m 6,8 km/h (2 Bft) S 187 10 min 0,000 mm 722 W/m 18,3 C 27,8 C 20,9 km/h (4 Bft) 100 %
26.08.2017 12:40 27,9 C 27,9 C 28,0 C 57 % 1014,5 hPa 0,0 l/m 11,1 km/h (2 Bft) S-SW 195 10 min 0,000 mm 729 W/m 18,6 C 27,2 C 22,5 km/h (4 Bft) 100 %
26.08.2017 12:50 27,9 C 27,8 C 27,9 C 57 % 1014,4 hPa 0,0 l/m 8,9 km/h (2 Bft) W 269 10 min 0,000 mm 733 W/m 18,6 C 27,5 C 20,9 km/h (4 Bft) 91 %
26.08.2017 13:00 28,1 C 27,9 C 28,1 C 58 % 1014,4 hPa 0,0 l/m 7,6 km/h (2 Bft) W 262 10 min 0,534 mm 735 W/m 19,0 C 27,9 C 17,7 km/h (3 Bft) 100 %
26.08.2017 13:10 28,4 C 28,1 C 28,4 C 56 % 1014,3 hPa 0,0 l/m 6,4 km/h (2 Bft) W-NW 301 10 min 0,000 mm 731 W/m 18,8 C 28,4 C 17,7 km/h (3 Bft) 100 %
26.08.2017 13:20 28,4 C 28,3 C 28,4 C 58 % 1014,1 hPa 0,0 l/m 1,3 km/h (1 Bft) S-SW 213 10 min 0,000 mm 742 W/m 19,3 C 28,4 C 9,7 km/h (2 Bft) 100 %
26.08.2017 13:30 28,6 C 28,4 C 28,6 C 58 % 1014,1 hPa 0,0 l/m 3,8 km/h (1 Bft) S-SW 204 10 min 0,000 mm 735 W/m 19,5 C 28,6 C 20,9 km/h (4 Bft) 100 %
26.08.2017 13:40 28,7 C 28,6 C 28,7 C 60 % 1013,9 hPa 0,0 l/m 4,9 km/h (1 Bft) W-SW 253 10 min 0,000 mm 740 W/m 20,1 C 28,7 C 14,5 km/h (3 Bft) 100 %
26.08.2017 13:50 29,1 C 28,7 C 29,1 C 59 % 1014,0 hPa 0,0 l/m 5,3 km/h (1 Bft) W-NW 286 10 min 0,000 mm 729 W/m 20,2 C 29,1 C 16,1 km/h (3 Bft) 100 %
26.08.2017 14:00 29,1 C 29,0 C 29,1 C 60 % 1013,9 hPa 0,0 l/m 9,2 km/h (2 Bft) W-SW 252 10 min 0,508 mm 724 W/m 20,5 C 28,8 C 22,5 km/h (4 Bft) 100 %
26.08.2017 14:10 29,3 C 29,1 C 29,3 C 60 % 1013,9 hPa 0,0 l/m 7,0 km/h (2 Bft) SW 215 10 min 0,000 mm 724 W/m 20,7 C 29,2 C 17,7 km/h (3 Bft) 100 %
26.08.2017 14:20 29,3 C 29,3 C 29,3 C 58 % 1013,9 hPa 0,0 l/m 7,7 km/h (2 Bft) S-SW 209 10 min 0,000 mm 705 W/m 20,2 C 29,1 C 19,3 km/h (3 Bft) 100 %
26.08.2017 14:30 29,2 C 29,2 C 29,3 C 60 % 1013,7 hPa 0,0 l/m 6,7 km/h (2 Bft) W-SW 238 10 min 0,000 mm 701 W/m 20,6 C 29,2 C 17,7 km/h (3 Bft) 100 %
26.08.2017 14:40 29,2 C 29,2 C 29,2 C 58 % 1013,6 hPa 0,0 l/m 9,3 km/h (2 Bft) S-SW 210 10 min 0,000 mm 717 W/m 20,1 C 28,9 C 20,9 km/h (4 Bft) 100 %
26.08.2017 14:50 29,4 C 29,1 C 29,4 C 57 % 1013,6 hPa 0,0 l/m 6,1 km/h (2 Bft) W 260 10 min 0,000 mm 701 W/m 20,0 C 29,4 C 17,7 km/h (3 Bft) 100 %
26.08.2017 15:00 29,6 C 29,4 C 29,6 C 58 % 1013,6 hPa 0,0 l/m 3,2 km/h (1 Bft) W-SW 237 10 min 0,482 mm 809 W/m 20,4 C 29,6 C 16,1 km/h (3 Bft) 100 %
26.08.2017 15:10 29,3 C 29,3 C 29,6 C 58 % 1013,6 hPa 0,0 l/m 7,8 km/h (2 Bft) W-NW 286 10 min 0,000 mm 304 W/m 20,2 C 29,1 C 22,5 km/h (4 Bft) 100 %
26.08.2017 15:20 29,4 C 29,2 C 29,4 C 57 % 1013,5 hPa 0,0 l/m 8,3 km/h (2 Bft) W 280 10 min 0,000 mm 276 W/m 20,0 C 29,2 C 25,7 km/h (4 Bft) 100 %
26.08.2017 15:30 29,6 C 29,4 C 29,6 C 55 % 1013,5 hPa 0,0 l/m 9,6 km/h (2 Bft) W-SW 254 10 min 0,000 mm 668 W/m 19,6 C 29,3 C 20,9 km/h (4 Bft) 100 %
26.08.2017 15:40 29,8 C 29,6 C 29,8 C 56 % 1013,5 hPa 0,0 l/m 7,3 km/h (2 Bft) W-SW 245 10 min 0,000 mm 649 W/m 20,1 C 29,7 C 19,3 km/h (3 Bft) 100 %
26.08.2017 15:50 29,8 C 29,8 C 29,8 C 58 % 1013,3 hPa 0,0 l/m 3,2 km/h (1 Bft) W 267 10 min 0,000 mm 631 W/m 20,6 C 29,8 C 16,1 km/h (3 Bft) 100 %
26.08.2017 16:00 30,0 C 29,8 C 30,0 C 56 % 1013,4 hPa 0,0 l/m 5,2 km/h (1 Bft) SW 227 10 min 0,407 mm 608 W/m 20,2 C 30,0 C 17,7 km/h (3 Bft) 100 %
26.08.2017 16:10 29,8 C 29,8 C 30,0 C 56 % 1013,4 hPa 0,0 l/m 5,9 km/h (2 Bft) W 263 10 min 0,000 mm 559 W/m 20,1 C 29,8 C 20,9 km/h (4 Bft) 100 %
26.08.2017 16:20 29,9 C 29,8 C 29,9 C 57 % 1013,3 hPa 0,0 l/m 7,3 km/h (2 Bft) S-SW 202 10 min 0,000 mm 526 W/m 20,4 C 29,8 C 17,7 km/h (3 Bft) 100 %
26.08.2017 16:30 29,7 C 29,7 C 29,9 C 55 % 1013,3 hPa 0,0 l/m 9,9 km/h (2 Bft) W-SW 257 10 min 0,000 mm 527 W/m 19,7 C 29,4 C 27,4 km/h (4 Bft) 100 %
26.08.2017 16:40 29,7 C 29,6 C 29,7 C 56 % 1013,3 hPa 0,0 l/m 6,9 km/h (2 Bft) W-NW 298 0 min 0,000 mm 141 W/m 20,0 C 29,6 C 19,3 km/h (3 Bft) 99 %
26.08.2017 16:50 29,7 C 29,7 C 29,7 C 58 % 1013,2 hPa 0,0 l/m 1,9 km/h (1 Bft) W-NW 290 0 min 0,000 mm 130 W/m 20,5 C 29,7 C 12,9 km/h (3 Bft) 100 %
26.08.2017 17:00 29,7 C 29,7 C 29,8 C 55 % 1013,2 hPa 0,0 l/m 8,4 km/h (2 Bft) W-NW 294 0 min 0,279 mm 125 W/m 19,7 C 29,5 C 20,9 km/h (4 Bft) 100 %
26.08.2017 17:10 29,5 C 29,4 C 29,7 C 58 % 1013,1 hPa 0,0 l/m 5,9 km/h (2 Bft) W-NW 302 0 min 0,000 mm 120 W/m 20,3 C 29,5 C 19,3 km/h (3 Bft) 100 %
26.08.2017 17:20 29,3 C 29,3 C 29,5 C 56 % 1013,0 hPa 0,0 l/m 7,8 km/h (2 Bft) W 273 0 min 0,000 mm 113 W/m 19,6 C 29,1 C 19,3 km/h (3 Bft) 100 %
26.08.2017 17:30 29,1 C 29,1 C 29,3 C 57 % 1013,0 hPa 0,0 l/m 9,0 km/h (2 Bft) W-NW 293 0 min 0,000 mm 107 W/m 19,7 C 28,8 C 19,3 km/h (3 Bft) 100 %
26.08.2017 17:40 28,9 C 28,9 C 29,1 C 58 % 1013,0 hPa 0,0 l/m 6,8 km/h (2 Bft) W 261 0 min 0,000 mm 102 W/m 19,8 C 28,8 C 17,7 km/h (3 Bft) 100 %
26.08.2017 17:50 28,7 C 28,7 C 28,9 C 58 % 1012,8 hPa 0,0 l/m 9,4 km/h (2 Bft) W-NW 289 0 min 0,000 mm 95 W/m 19,6 C 28,3 C 24,1 km/h (4 Bft) 100 %
26.08.2017 18:00 28,6 C 28,6 C 28,7 C 59 % 1012,9 hPa 0,0 l/m 10,0 km/h (2 Bft) NW 309 0 min 0,127 mm 90 W/m 19,8 C 28,1 C 20,9 km/h (4 Bft) 100 %
26.08.2017 18:10 28,3 C 28,3 C 28,6 C 60 % 1012,9 hPa 0,0 l/m 7,4 km/h (2 Bft) W-NW 295 0 min 0,000 mm 86 W/m 19,8 C 28,2 C 14,5 km/h (3 Bft) 100 %
26.08.2017 18:20 28,1 C 28,1 C 28,3 C 60 % 1013,0 hPa 0,0 l/m 7,0 km/h (2 Bft) W-NW 286 0 min 0,000 mm 79 W/m 19,6 C 28,0 C 17,7 km/h (3 Bft) 100 %
26.08.2017 18:30 27,8 C 27,8 C 28,1 C 62 % 1012,9 hPa 0,0 l/m 5,9 km/h (2 Bft) W-NW 301 0 min 0,000 mm 74 W/m 19,8 C 27,8 C 17,7 km/h (3 Bft) 100 %
26.08.2017 18:40 27,6 C 27,6 C 27,8 C 62 % 1012,9 hPa 0,0 l/m 3,1 km/h (1 Bft) W-NW 300 0 min 0,000 mm 72 W/m 19,6 C 27,6 C 11,3 km/h (2 Bft) 100 %
26.08.2017 18:50 27,4 C 27,4 C 27,6 C 62 % 1012,8 hPa 0,0 l/m 4,2 km/h (1 Bft) W-NW 294 0 min 0,000 mm 65 W/m 19,5 C 27,4 C 11,3 km/h (2 Bft) 100 %
26.08.2017 19:00 27,3 C 27,3 C 27,4 C 63 % 1012,8 hPa 0,0 l/m 2,0 km/h (1 Bft) W-NW 298 0 min 0,076 mm 54 W/m 19,6 C 27,3 C 9,7 km/h (2 Bft) 100 %
26.08.2017 19:10 27,1 C 27,1 C 27,3 C 64 % 1012,8 hPa 0,0 l/m 2,1 km/h (1 Bft) NW 310 0 min 0,000 mm 46 W/m 19,7 C 27,1 C 9,7 km/h (2 Bft) 100 %
26.08.2017 19:20 26,8 C 26,8 C 27,1 C 64 % 1012,8 hPa 0,0 l/m 2,8 km/h (1 Bft) NW 307 0 min 0,000 mm 35 W/m 19,4 C 26,8 C 8,0 km/h (2 Bft) 100 %
26.08.2017 19:30 26,6 C 26,6 C 26,8 C 65 % 1012,8 hPa 0,0 l/m 1,2 km/h (1 Bft) W-NW 298 0 min 0,000 mm 28 W/m 19,5 C 26,6 C 8,0 km/h (2 Bft) 100 %
26.08.2017 19:40 26,3 C 26,3 C 26,6 C 65 % 1012,8 hPa 0,0 l/m 1,9 km/h (1 Bft) W-NW 302 0 min 0,000 mm 23 W/m 19,2 C 26,3 C 8,0 km/h (2 Bft) 100 %
26.08.2017 19:50 26,0 C 26,0 C 26,3 C 66 % 1012,9 hPa 0,0 l/m 0,7 km/h (0 Bft) W-NW 293 0 min 0,000 mm 16 W/m 19,1 C 26,0 C 6,4 km/h (2 Bft) 100 %
26.08.2017 20:00 25,8 C 25,8 C 26,0 C 66 % 1012,9 hPa 0,0 l/m 0,4 km/h (0 Bft) W-NW 293 0 min 0,026 mm 12 W/m 19,0 C 25,8 C 4,8 km/h (1 Bft) 99 %
26.08.2017 20:10 25,6 C 25,6 C 25,8 C 67 % 1013,0 hPa 0,0 l/m 0,0 km/h (0 Bft) W-NW 293 0 min 0,000 mm 5 W/m 19,0 C 25,6 C 1,6 km/h (1 Bft) 100 %
26.08.2017 20:20 25,3 C 25,3 C 25,6 C 68 % 1013,0 hPa 0,0 l/m 0,0 km/h (0 Bft) W-NW 293 0 min 0,000 mm 0 W/m 19,0 C 25,3 C 0,0 km/h (0 Bft) 100 %
26.08.2017 20:30 24,9 C 24,9 C 25,3 C 69 % 1013,2 hPa 0,0 l/m 0,0 km/h (0 Bft) W-NW 293 0 min 0,000 mm 0 W/m 18,8 C 24,9 C 0,0 km/h (0 Bft) 100 %
26.08.2017 20:40 24,4 C 24,4 C 24,9 C 71 % 1013,4 hPa 0,0 l/m 0,0 km/h (0 Bft) W-NW 293 0 min 0,000 mm 0 W/m 18,8 C 24,4 C 0,0 km/h (0 Bft) 99 %
26.08.2017 20:50 24,1 C 24,1 C 24,4 C 72 % 1013,5 hPa 0,0 l/m 0,0 km/h (0 Bft) W-NW 293 0 min 0,000 mm 0 W/m 18,7 C 24,1 C 0,0 km/h (0 Bft) 100 %
26.08.2017 21:00 23,7 C 23,7 C 24,1 C 73 % 1013,5 hPa 0,0 l/m 0,0 km/h (0 Bft) W-NW 293 0 min 0,000 mm 0 W/m 18,6 C 23,7 C 0,0 km/h (0 Bft) 100 %
26.08.2017 21:10 23,3 C 23,3 C 23,7 C 74 % 1013,6 hPa 0,0 l/m 0,0 km/h (0 Bft) W-NW 293 0 min 0,000 mm 0 W/m 18,4 C 23,3 C 0,0 km/h (0 Bft) 100 %
26.08.2017 21:20 23,0 C 23,0 C 23,3 C 76 % 1013,6 hPa 0,0 l/m 0,0 km/h (0 Bft) W-NW 293 0 min 0,000 mm 0 W/m 18,5 C 23,0 C 0,0 km/h (0 Bft) 100 %
26.08.2017 21:30 22,6 C 22,6 C 23,0 C 77 % 1013,8 hPa 0,0 l/m 0,0 km/h (0 Bft) W-NW 293 0 min 0,000 mm 0 W/m 18,4 C 22,6 C 0,0 km/h (0 Bft) 100 %
26.08.2017 21:40 22,2 C 22,2 C 22,6 C 78 % 1013,7 hPa 0,0 l/m 0,0 km/h (0 Bft) W-NW 293 0 min 0,000 mm 0 W/m 18,2 C 22,2 C 0,0 km/h (0 Bft) 100 %
26.08.2017 21:50 21,9 C 21,9 C 22,2 C 79 % 1013,7 hPa 0,0 l/m 0,0 km/h (0 Bft) W-NW 293 0 min 0,000 mm 0 W/m 18,1 C 21,9 C 0,0 km/h (0 Bft) 100 %
26.08.2017 22:00 21,8 C 21,8 C 21,9 C 80 % 1013,7 hPa 0,0 l/m 0,0 km/h (0 Bft) W-NW 293 0 min 0,025 mm 0 W/m 18,2 C 21,8 C 0,0 km/h (0 Bft) 100 %
26.08.2017 22:10 21,5 C 21,5 C 21,8 C 80 % 1013,7 hPa 0,0 l/m 0,0 km/h (0 Bft) W-NW 293 0 min 0,000 mm 0 W/m 17,9 C 21,5 C 0,0 km/h (0 Bft) 100 %
26.08.2017 22:20 21,3 C 21,2 C 21,5 C 81 % 1013,8 hPa 0,0 l/m 0,0 km/h (0 Bft) W-NW 293 0 min 0,000 mm 0 W/m 17,9 C 21,3 C 1,6 km/h (1 Bft) 100 %
26.08.2017 22:30 20,9 C 20,9 C 21,3 C 82 % 1013,9 hPa 0,0 l/m 0,0 km/h (0 Bft) W-NW 293 0 min 0,000 mm 0 W/m 17,7 C 20,9 C 1,6 km/h (1 Bft) 100 %
26.08.2017 22:40 20,7 C 20,7 C 20,9 C 83 % 1013,9 hPa 0,0 l/m 0,0 km/h (0 Bft) W-NW 293 0 min 0,000 mm 0 W/m 17,7 C 20,7 C 0,0 km/h (0 Bft) 100 %
26.08.2017 22:50 20,4 C 20,4 C 20,7 C 83 % 1013,9 hPa 0,0 l/m 0,0 km/h (0 Bft) W-NW 293 0 min 0,000 mm 0 W/m 17,4 C 20,4 C 0,0 km/h (0 Bft) 100 %
26.08.2017 23:00 20,2 C 20,2 C 20,4 C 84 % 1014,0 hPa 0,0 l/m 0,0 km/h (0 Bft) W-NW 293 0 min 0,025 mm 0 W/m 17,4 C 20,2 C 0,0 km/h (0 Bft) 100 %
26.08.2017 23:10 20,0 C 20,0 C 20,2 C 85 % 1014,1 hPa 0,0 l/m 0,0 km/h (0 Bft) N 0 0 min 0,000 mm 0 W/m 17,4 C 20,0 C 0,0 km/h (0 Bft) 100 %
26.08.2017 23:20 19,8 C 19,8 C 20,0 C 85 % 1014,2 hPa 0,0 l/m 0,0 km/h (0 Bft) N 0 0 min 0,000 mm 0 W/m 17,2 C 19,8 C 0,0 km/h (0 Bft) 100 %
26.08.2017 23:30 19,7 C 19,7 C 19,8 C 86 % 1014,2 hPa 0,0 l/m 0,0 km/h (0 Bft) N 0 0 min 0,000 mm 0 W/m 17,3 C 19,7 C 0,0 km/h (0 Bft) 100 %
26.08.2017 23:40 19,5 C 19,5 C 19,7 C 86 % 1014,3 hPa 0,0 l/m 0,0 km/h (0 Bft) N 0 0 min 0,000 mm 0 W/m 17,1 C 19,5 C 0,0 km/h (0 Bft) 100 %
26.08.2017 23:50 19,3 C 19,3 C 19,5 C 86 % 1014,1 hPa 0,0 l/m 0,0 km/h (0 Bft) N 0 0 min 0,000 mm 0 W/m 16,9 C 19,3 C 0,0 km/h (0 Bft) 100 %
_ Min-Zeit 06:50 06:50 07:00 15:30 17:50 - 00:10 - - - - - 06:50 06:50 00:10 00:00
Minimum _ 15,1 C 15,1 C 15,1 C 55 % 1012,8 hPa - 0,0 km/h (0 Bft) - - - - - 13,3 C 15,1 C 0,0 km/h (0 Bft) 67 %
_ Max-Zeit 16:00 15:50 16:00 04:40 00:00 00:00 11:50 - - 08:40 13:00 15:00 14:10 16:00 16:30 00:10
Maximum _ 30,0 C 29,8 C 30,0 C 89 % 1015,1 hPa 0,0 l/m 11,7 km/h
SW (2 Bft)
- - 10 min 0,534 mm 809 W/m 20,7 C 30,0 C 27,4 km/h
W (4 Bft)
100 %
Durchschnitt _ 22,3 C 22,2 C 22,4 C 75 % 1014,1 hPa #0,0 l/m 2,6 km/h (1 Bft) W-NW - #8:00 h #3,581 mm 369 W/m 17,4 C 22,3 C 7,5 km/h (2 Bft) 99 %
PRIVATE WETTERSTATION BILLIGHEIM-ALLFELD - www.neckar-odenwald-wetter.de - Holger Sonntag